createdAt,value
2017-12-10T00:01:45.179Z,94560.64
2017-12-10T00:04:12.782Z,94549.06
2017-12-10T00:06:40.396Z,94532.86
2017-12-10T00:09:08.025Z,94536.72
2017-12-10T00:11:35.788Z,94539.16
2017-12-10T00:14:03.602Z,94564.30
2017-12-10T00:16:32.002Z,94571.56
2017-12-10T00:18:59.585Z,94568.30
2017-12-10T00:21:27.194Z,94566.83
2017-12-10T00:23:55.006Z,94591.13
2017-12-10T00:26:22.820Z,94609.70
2017-12-10T00:28:50.620Z,94610.86
2017-12-10T00:31:18.206Z,94587.98
2017-12-10T00:33:45.965Z,94609.95
2017-12-10T00:36:13.772Z,94586.27
2017-12-10T00:38:41.393Z,94601.98
2017-12-10T00:41:10.094Z,94597.59
2017-12-10T00:43:37.684Z,94608.37
2017-12-10T00:46:05.313Z,94608.14
2017-12-10T00:48:33.793Z,94611.57
2017-12-10T00:51:02.181Z,94610.16
2017-12-10T00:53:29.780Z,94604.57
2017-12-10T00:55:57.309Z,94623.27
2017-12-10T00:58:25.073Z,94615.11
2017-12-10T01:00:52.682Z,94619.95
2017-12-10T01:03:20.504Z,94609.78
2017-12-10T01:05:48.354Z,94614.97
2017-12-10T01:08:16.176Z,94636.48
2017-12-10T01:10:43.733Z,94645.72
2017-12-10T01:13:11.275Z,94659.28
2017-12-10T01:15:38.863Z,94669.66
2017-12-10T01:18:06.505Z,94647.19
2017-12-10T01:20:34.355Z,94638.58
2017-12-10T01:23:01.951Z,94646.36
2017-12-10T01:25:29.585Z,94642.37
2017-12-10T01:27:57.380Z,94649.94
2017-12-10T01:30:25.018Z,94644.76
2017-12-10T01:32:52.669Z,94646.29
2017-12-10T01:35:20.256Z,94637.72
2017-12-10T01:37:47.819Z,94631.21
2017-12-10T01:40:15.355Z,94645.15
2017-12-10T01:42:42.893Z,94643.22
2017-12-10T01:45:11.196Z,94641.36
2017-12-10T01:47:38.794Z,94640.91
2017-12-10T01:50:06.717Z,94651.34
2017-12-10T01:52:34.315Z,94641.13
2017-12-10T01:55:02.085Z,94627.35
2017-12-10T01:57:29.654Z,94625.85
2017-12-10T01:59:57.277Z,94629.84
2017-12-10T02:02:25.075Z,94640.40
2017-12-10T02:04:52.654Z,94627.47
2017-12-10T02:07:20.442Z,94623.71
2017-12-10T02:09:48.299Z,94627.52
2017-12-10T02:12:15.903Z,94605.81
2017-12-10T02:14:43.437Z,94608.09
2017-12-10T02:17:11.005Z,94615.61
2017-12-10T02:19:38.778Z,94619.22
2017-12-10T02:22:06.569Z,94615.00
2017-12-10T02:24:34.137Z,94614.38
2017-12-10T02:27:01.934Z,94645.90
2017-12-10T02:29:29.732Z,94654.83
2017-12-10T02:31:57.342Z,94657.87
2017-12-10T02:34:25.107Z,94661.77
2017-12-10T02:36:52.956Z,94671.72
2017-12-10T02:39:21.504Z,94671.67
2017-12-10T02:41:49.263Z,94687.03
2017-12-10T02:44:17.018Z,94696.87
2017-12-10T02:46:44.620Z,94716.89
2017-12-10T02:49:12.160Z,94739.28
2017-12-10T02:51:39.737Z,94729.82
2017-12-10T02:54:07.317Z,94739.25
2017-12-10T02:56:35.106Z,94728.34
2017-12-10T02:59:02.870Z,94724.72
2017-12-10T03:01:31.216Z,94710.03
2017-12-10T03:03:58.811Z,94719.87
2017-12-10T03:06:26.819Z,94711.58
2017-12-10T03:08:54.602Z,94716.69
2017-12-10T03:11:22.363Z,94719.39
2017-12-10T03:13:49.921Z,94719.75
2017-12-10T03:16:17.490Z,94728.44
2017-12-10T03:18:45.980Z,94731.55
2017-12-10T03:21:13.745Z,94741.59
2017-12-10T03:23:41.365Z,94738.72
2017-12-10T03:26:09.189Z,94746.48
2017-12-10T03:28:36.961Z,94754.02
2017-12-10T03:31:04.806Z,94764.05
2017-12-10T03:33:32.356Z,94778.70
2017-12-10T03:36:01.064Z,94777.84
2017-12-10T03:38:29.273Z,94754.58
2017-12-10T03:40:57.043Z,94774.45
2017-12-10T03:43:24.595Z,94768.17
2017-12-10T03:45:52.430Z,94791.72
2017-12-10T03:48:20.212Z,94807.30
2017-12-10T03:50:47.781Z,94810.20
2017-12-10T03:53:16.328Z,94825.36
2017-12-10T03:55:43.880Z,94829.48
2017-12-10T03:58:11.666Z,94829.42
2017-12-10T04:00:39.289Z,94826.25
2017-12-10T04:03:07.079Z,94832.78
2017-12-10T04:05:34.715Z,94833.52
2017-12-10T04:08:02.351Z,94825.87
2017-12-10T04:10:29.923Z,94823.83
2017-12-10T04:12:57.738Z,94837.59
2017-12-10T04:15:25.383Z,94845.34
2017-12-10T04:17:53.158Z,94853.58
2017-12-10T04:20:20.917Z,94868.38
2017-12-10T04:22:49.380Z,94879.28
2017-12-10T04:25:17.136Z,94890.50
2017-12-10T04:27:44.666Z,94904.55
2017-12-10T04:30:12.394Z,94923.02
2017-12-10T04:32:39.975Z,94913.62
2017-12-10T04:35:07.541Z,94921.39
2017-12-10T04:40:04.159Z,94926.95
2017-12-10T04:42:34.912Z,94932.41
2017-12-10T04:45:02.585Z,94937.81
2017-12-10T04:47:30.192Z,94937.23
2017-12-10T04:49:57.816Z,94937.95
2017-12-10T04:52:25.603Z,94939.28
2017-12-10T04:54:53.219Z,94957.35
2017-12-10T04:57:20.842Z,94952.86
2017-12-10T04:59:48.658Z,94964.00
2017-12-10T05:02:16.361Z,94955.80
2017-12-10T05:04:43.917Z,94973.04
2017-12-10T05:07:11.676Z,94986.11
2017-12-10T05:09:39.318Z,94982.50
2017-12-10T05:12:06.918Z,94985.29
2017-12-10T05:14:34.485Z,94984.78
2017-12-10T05:17:02.114Z,94988.39
2017-12-10T05:19:29.869Z,94981.39
2017-12-10T05:21:57.394Z,94990.97
2017-12-10T05:24:25.163Z,95001.78
2017-12-10T05:26:52.925Z,94990.89
2017-12-10T05:29:20.745Z,95011.16
2017-12-10T05:31:48.492Z,95007.81
2017-12-10T05:34:16.908Z,95019.69
2017-12-10T05:36:44.965Z,95007.13
2017-12-10T05:39:12.564Z,95023.54
2017-12-10T05:41:40.150Z,95020.16
2017-12-10T05:44:08.115Z,95033.48
2017-12-10T05:46:35.758Z,95028.84
2017-12-10T05:49:03.649Z,95047.88
2017-12-10T05:51:31.870Z,95047.42
2017-12-10T05:53:59.685Z,95062.86
2017-12-10T05:56:28.006Z,95066.95
2017-12-10T05:58:56.321Z,95082.41
2017-12-10T06:01:24.014Z,95079.63
2017-12-10T06:03:51.611Z,95082.48
2017-12-10T06:06:19.394Z,95082.33
2017-12-10T06:08:47.015Z,95092.53
2017-12-10T06:11:14.617Z,95099.47
2017-12-10T06:13:42.219Z,95088.73
2017-12-10T06:16:09.976Z,95124.74
2017-12-10T06:18:37.740Z,95133.63
2017-12-10T06:21:05.433Z,95140.31
2017-12-10T06:23:33.029Z,95139.97
2017-12-10T06:26:00.580Z,95141.03
2017-12-10T06:28:28.376Z,95148.13
2017-12-10T06:30:55.970Z,95156.84
2017-12-10T06:33:23.574Z,95163.27
2017-12-10T06:35:51.167Z,95161.41
2017-12-10T06:38:18.898Z,95157.74
2017-12-10T06:40:46.495Z,95164.81
2017-12-10T06:43:14.269Z,95161.25
2017-12-10T06:45:42.073Z,95162.69
2017-12-10T06:48:09.846Z,95157.60
2017-12-10T06:50:37.473Z,95174.90
2017-12-10T06:53:05.057Z,95178.38
2017-12-10T06:55:32.674Z,95188.50
2017-12-10T06:58:00.242Z,95186.20
2017-12-10T07:00:27.868Z,95145.53
2017-12-10T07:02:56.521Z,95193.67
2017-12-10T07:05:24.595Z,95200.77
2017-12-10T07:07:52.215Z,95197.70
2017-12-10T07:10:19.784Z,95199.11
2017-12-10T07:12:47.351Z,95211.22
2017-12-10T07:15:14.944Z,95217.50
2017-12-10T07:17:42.729Z,95236.53
2017-12-10T07:20:10.537Z,95234.68
2017-12-10T07:22:38.150Z,95233.33
2017-12-10T07:25:06.510Z,95239.31
2017-12-10T07:27:34.370Z,95248.08
2017-12-10T07:30:04.885Z,95253.75
2017-12-10T07:32:35.317Z,95249.55
2017-12-10T07:35:03.090Z,95245.86
2017-12-10T07:37:30.685Z,95252.71
2017-12-10T07:39:58.454Z,95256.02
2017-12-10T07:42:26.264Z,95274.63
2017-12-10T07:44:53.834Z,95283.03
2017-12-10T07:47:22.046Z,95286.17
2017-12-10T07:49:49.793Z,95286.80
2017-12-10T07:52:17.385Z,95295.30
2017-12-10T07:54:44.933Z,95302.28
2017-12-10T07:57:12.550Z,95304.48
2017-12-10T07:59:40.235Z,95310.94
2017-12-10T08:02:07.965Z,95317.55
2017-12-10T08:04:35.568Z,95327.91
2017-12-10T08:07:03.359Z,95327.80
2017-12-10T08:09:31.002Z,95337.91
2017-12-10T08:11:58.789Z,95332.08
2017-12-10T08:14:26.385Z,95336.08
2017-12-10T08:16:54.060Z,95343.58
2017-12-10T08:19:21.850Z,95345.16
2017-12-10T08:21:49.460Z,95341.88
2017-12-10T08:24:17.050Z,95349.17
2017-12-10T08:26:44.657Z,95358.94
2017-12-10T08:29:12.454Z,95358.09
2017-12-10T08:31:40.066Z,95364.30
2017-12-10T08:34:07.884Z,95370.92
2017-12-10T08:36:35.510Z,95374.80
2017-12-10T08:39:03.547Z,95374.31
2017-12-10T08:41:31.188Z,95382.31
2017-12-10T08:43:58.803Z,95380.52
2017-12-10T08:46:26.434Z,95385.78
2017-12-10T08:48:54.146Z,95381.02
2017-12-10T08:51:21.760Z,95383.38
2017-12-10T08:53:49.424Z,95401.88
2017-12-10T08:56:17.070Z,95395.42
2017-12-10T08:58:44.705Z,95387.30
2017-12-10T09:01:12.417Z,95398.06
2017-12-10T09:03:41.180Z,95402.44
2017-12-10T09:06:09.832Z,95403.45
2017-12-10T09:08:38.142Z,95411.53
2017-12-10T09:11:06.707Z,95411.09
2017-12-10T09:13:35.009Z,95408.20
2017-12-10T09:16:03.123Z,95405.22
2017-12-10T09:18:30.878Z,95412.06
2017-12-10T09:20:58.611Z,95412.42
2017-12-10T09:23:26.751Z,95419.53
2017-12-10T09:25:54.544Z,95413.99
2017-12-10T09:28:22.065Z,95421.64
2017-12-10T09:30:49.633Z,95431.50
2017-12-10T09:33:17.248Z,95419.86
2017-12-10T09:35:44.815Z,95406.21
2017-12-10T09:38:12.573Z,95411.83
2017-12-10T09:40:40.144Z,95412.73
2017-12-10T09:43:07.731Z,95399.80
2017-12-10T09:45:35.336Z,95396.72
2017-12-10T09:48:02.938Z,95378.81
2017-12-10T09:50:30.556Z,95381.83
2017-12-10T09:52:58.120Z,95372.57
2017-12-10T09:55:25.681Z,95389.13
2017-12-10T09:57:53.355Z,95383.55
2017-12-10T10:00:20.982Z,95390.95
2017-12-10T10:02:48.541Z,95399.44
2017-12-10T10:05:16.107Z,95394.94
2017-12-10T10:07:44.442Z,95395.28
2017-12-10T10:10:12.252Z,95398.43
2017-12-10T10:12:40.060Z,95394.68
2017-12-10T10:15:07.748Z,95390.13
2017-12-10T10:17:35.560Z,95409.19
2017-12-10T10:20:03.147Z,95411.20
2017-12-10T10:22:31.143Z,95389.55
2017-12-10T10:24:58.815Z,95387.59
2017-12-10T10:27:26.603Z,95396.95
2017-12-10T10:29:54.260Z,95391.55
2017-12-10T10:32:22.602Z,95395.73
2017-12-10T10:34:50.250Z,95397.73
2017-12-10T10:37:18.084Z,95398.09
2017-12-10T10:39:45.756Z,95384.58
2017-12-10T10:42:14.129Z,95394.34
2017-12-10T10:44:42.552Z,95397.05
2017-12-10T10:47:10.293Z,95401.19
2017-12-10T10:49:38.199Z,95387.78
2017-12-10T10:52:05.789Z,95390.08
2017-12-10T10:54:34.120Z,95389.75
2017-12-10T10:57:02.527Z,95390.11
2017-12-10T10:59:30.148Z,95386.81
2017-12-10T11:01:57.766Z,95389.08
2017-12-10T11:04:25.470Z,95376.58
2017-12-10T11:06:53.235Z,95374.22
2017-12-10T11:09:20.901Z,95378.34
2017-12-10T11:11:48.678Z,95373.55
2017-12-10T11:14:16.526Z,95372.45
2017-12-10T11:16:45.145Z,95371.99
2017-12-10T11:19:14.049Z,95381.25
2017-12-10T11:21:41.631Z,95371.52
2017-12-10T11:24:09.454Z,95369.02
2017-12-10T11:26:37.012Z,95377.41
2017-12-10T11:29:04.622Z,95375.06
2017-12-10T11:31:32.249Z,95388.09
2017-12-10T11:34:00.069Z,95384.27
2017-12-10T11:36:27.864Z,95382.25
2017-12-10T11:38:55.725Z,95387.47
2017-12-10T11:41:24.938Z,95371.97
2017-12-10T11:43:56.710Z,95375.37
2017-12-10T11:46:27.061Z,95367.05
2017-12-10T11:48:56.003Z,95368.09
2017-12-10T11:51:26.468Z,95375.05
2017-12-10T11:53:58.586Z,95371.16
2017-12-10T11:56:26.493Z,95385.70
2017-12-10T11:58:54.316Z,95381.84
2017-12-10T12:01:21.906Z,95379.39
2017-12-10T12:03:50.415Z,95389.89
2017-12-10T12:06:18.118Z,95387.20
2017-12-10T12:08:45.744Z,95384.28
2017-12-10T12:11:13.355Z,95390.49
2017-12-10T12:13:41.188Z,95385.36
2017-12-10T12:16:09.381Z,95384.92
2017-12-10T12:18:37.151Z,95391.08
2017-12-10T12:21:04.737Z,95386.58
2017-12-10T12:23:32.374Z,95377.16
2017-12-10T12:26:00.510Z,95395.99
2017-12-10T12:28:28.749Z,95391.09
2017-12-10T12:30:56.421Z,95384.38
2017-12-10T12:33:23.955Z,95388.55
2017-12-10T12:35:51.547Z,95392.65
2017-12-10T12:38:19.189Z,95393.45
2017-12-10T12:40:46.847Z,95389.04
2017-12-10T12:43:14.647Z,95382.38
2017-12-10T12:45:42.316Z,95379.86
2017-12-10T12:48:09.872Z,95377.78
2017-12-10T12:50:37.484Z,95371.24
2017-12-10T12:53:05.084Z,95372.98
2017-12-10T12:55:32.652Z,95373.86
2017-12-10T12:58:00.326Z,95369.66
2017-12-10T13:00:27.913Z,95375.59
2017-12-10T13:02:55.532Z,95376.50
2017-12-10T13:05:23.345Z,95382.86
2017-12-10T13:07:51.613Z,95383.16
2017-12-10T13:10:19.206Z,95383.17
2017-12-10T13:12:46.792Z,95386.91
2017-12-10T13:15:14.384Z,95392.67
2017-12-10T13:17:42.178Z,95395.98
2017-12-10T13:20:09.744Z,95399.33
2017-12-10T13:22:37.335Z,95387.45
2017-12-10T13:25:04.975Z,95388.40
2017-12-10T13:27:32.578Z,95382.48
2017-12-10T13:30:00.614Z,95386.34
2017-12-10T13:32:28.439Z,95390.42
2017-12-10T13:34:56.315Z,95390.93
2017-12-10T13:37:24.130Z,95383.14
2017-12-10T13:39:51.797Z,95379.25
2017-12-10T13:42:20.706Z,95377.02
2017-12-10T13:44:48.634Z,95369.23
2017-12-10T13:47:16.872Z,95363.53
2017-12-10T13:49:44.749Z,95364.66
2017-12-10T13:52:12.736Z,95357.08
2017-12-10T13:54:40.312Z,95365.34
2017-12-10T13:57:07.986Z,95362.68
2017-12-10T13:59:35.815Z,95351.42
2017-12-10T14:02:03.501Z,95357.92
2017-12-10T14:04:31.241Z,95361.58
2017-12-10T14:06:58.816Z,95346.34
2017-12-10T14:09:26.649Z,95357.70
2017-12-10T14:11:55.135Z,95343.92
2017-12-10T14:14:22.814Z,95360.64
2017-12-10T14:16:50.505Z,95355.42
2017-12-10T14:19:18.061Z,95356.98
2017-12-10T14:21:45.910Z,95367.25
2017-12-10T14:24:13.491Z,95379.19
2017-12-10T14:26:41.052Z,95379.34
2017-12-10T14:29:09.452Z,95382.16
2017-12-10T14:31:37.083Z,95381.53
2017-12-10T14:34:04.711Z,95388.34
2017-12-10T14:36:32.494Z,95393.11
2017-12-10T14:39:00.320Z,95390.88
2017-12-10T14:41:28.891Z,95398.44
2017-12-10T14:43:56.734Z,95392.36
2017-12-10T14:46:25.269Z,95384.39
2017-12-10T14:48:52.917Z,95399.73
2017-12-10T14:51:20.521Z,95406.02
2017-12-10T14:53:48.133Z,95412.12
2017-12-10T14:56:15.856Z,95406.72
2017-12-10T14:58:44.309Z,95425.09
2017-12-10T15:01:12.085Z,95433.03
2017-12-10T15:03:40.013Z,95435.24
2017-12-10T15:06:11.343Z,95432.42
2017-12-10T15:08:38.921Z,95426.64
2017-12-10T15:11:07.793Z,95423.95
2017-12-10T15:13:35.549Z,95424.61
2017-12-10T15:16:04.446Z,95426.44
2017-12-10T15:18:33.084Z,95418.03
2017-12-10T15:21:00.867Z,95415.59
2017-12-10T15:23:28.789Z,95418.67
2017-12-10T15:25:57.455Z,95421.80
2017-12-10T15:28:25.697Z,95420.14
2017-12-10T15:30:53.310Z,95416.27
2017-12-10T15:33:21.642Z,95408.43
2017-12-10T15:35:49.370Z,95411.42
2017-12-10T15:38:16.965Z,95411.64
2017-12-10T15:40:44.693Z,95415.40
2017-12-10T15:43:13.326Z,95409.20
2017-12-10T15:45:42.290Z,95420.52
2017-12-10T15:48:10.032Z,95421.34
2017-12-10T15:50:37.694Z,95425.38
2017-12-10T15:53:05.826Z,95433.10
2017-12-10T15:55:34.312Z,95438.01
2017-12-10T15:58:02.370Z,95435.95
2017-12-10T16:00:30.555Z,95444.25
2017-12-10T16:03:00.841Z,95441.16
2017-12-10T16:05:28.775Z,95434.03
2017-12-10T16:07:57.349Z,95425.91
2017-12-10T16:10:25.669Z,95430.06
2017-12-10T16:12:53.712Z,95438.41
2017-12-10T16:15:24.238Z,95436.06
2017-12-10T16:17:54.679Z,95451.30
2017-12-10T16:20:24.126Z,95449.90
2017-12-10T16:22:52.791Z,95454.00
2017-12-10T16:25:22.216Z,95456.98
2017-12-10T16:27:50.927Z,95458.56
2017-12-10T16:30:20.424Z,95462.20
2017-12-10T16:32:48.085Z,95465.15
2017-12-10T16:35:15.936Z,95476.08
2017-12-10T16:37:43.634Z,95478.66
2017-12-10T16:40:11.643Z,95476.59
2017-12-10T16:42:39.219Z,95464.83
2017-12-10T16:45:06.939Z,95460.83
2017-12-10T16:47:34.545Z,95454.34
2017-12-10T16:50:02.331Z,95457.67
2017-12-10T16:52:29.941Z,95442.55
2017-12-10T16:54:57.929Z,95440.20
2017-12-10T16:57:25.520Z,95439.41
2017-12-10T16:59:53.159Z,95432.66
2017-12-10T17:02:21.031Z,95437.08
2017-12-10T17:04:53.345Z,95437.05
2017-12-10T17:07:20.959Z,95433.94
2017-12-10T17:09:49.214Z,95427.91
2017-12-10T17:12:16.818Z,95424.72
2017-12-10T17:14:44.423Z,95417.80
2017-12-10T17:17:12.586Z,95421.67
2017-12-10T17:19:40.148Z,95426.42
2017-12-10T17:22:07.794Z,95447.09
2017-12-10T17:24:37.028Z,95436.50
2017-12-10T17:27:04.634Z,95453.35
2017-12-10T17:29:32.538Z,95443.73
2017-12-10T17:32:00.250Z,95446.73
2017-12-10T17:34:28.100Z,95451.92
2017-12-10T17:36:57.226Z,95454.44
2017-12-10T17:39:25.707Z,95447.83
2017-12-10T17:41:53.385Z,95434.80
2017-12-10T17:44:22.095Z,95443.97
2017-12-10T17:46:50.524Z,95429.13
2017-12-10T17:49:18.606Z,95444.47
2017-12-10T17:51:46.482Z,95450.08
2017-12-10T17:54:15.147Z,95434.70
2017-12-10T17:56:44.091Z,95441.87
2017-12-10T17:59:13.442Z,95447.02
2017-12-10T18:01:42.235Z,95440.12
2017-12-10T18:04:10.158Z,95464.83
2017-12-10T18:06:37.757Z,95456.08
2017-12-10T18:09:05.385Z,95458.28
2017-12-10T18:11:33.582Z,95475.41
2017-12-10T18:14:01.347Z,95473.13
2017-12-10T18:16:29.018Z,95464.27
2017-12-10T18:18:56.876Z,95456.66
2017-12-10T18:21:24.434Z,95455.83
2017-12-10T18:23:52.158Z,95459.73
2017-12-10T18:26:20.026Z,95467.20
2017-12-10T18:28:47.648Z,95454.05
2017-12-10T18:31:15.266Z,95449.45
2017-12-10T18:33:43.090Z,95448.34
2017-12-10T18:36:10.686Z,95442.22
2017-12-10T18:38:38.678Z,95436.10
2017-12-10T18:41:06.303Z,95444.42
2017-12-10T18:43:33.906Z,95449.92
2017-12-10T18:46:01.491Z,95448.72
2017-12-10T18:48:29.065Z,95451.89
2017-12-10T18:50:57.254Z,95443.39
2017-12-10T18:53:24.974Z,95430.48
2017-12-10T18:55:52.586Z,95429.87
2017-12-10T18:58:20.611Z,95415.89
2017-12-10T19:00:48.460Z,95427.48
2017-12-10T19:03:16.524Z,95427.13
2017-12-10T19:05:44.165Z,95418.80
2017-12-10T19:08:11.908Z,95422.38
2017-12-10T19:10:39.634Z,95410.38
2017-12-10T19:13:08.038Z,95401.93
2017-12-10T19:15:35.825Z,95409.20
2017-12-10T19:18:03.430Z,95431.09
2017-12-10T19:20:31.769Z,95413.05
2017-12-10T19:22:59.418Z,95414.90
2017-12-10T19:25:27.256Z,95416.52
2017-12-10T19:27:54.840Z,95422.61
2017-12-10T19:30:22.718Z,95422.88
2017-12-10T19:32:50.516Z,95424.07
2017-12-10T19:35:18.496Z,95443.58
2017-12-10T19:37:47.312Z,95430.72
2017-12-10T19:40:15.506Z,95431.64
2017-12-10T19:42:45.243Z,95447.05
2017-12-10T19:45:13.684Z,95451.67
2017-12-10T19:47:41.555Z,95468.15
2017-12-10T19:50:09.344Z,95465.48
2017-12-10T19:52:36.958Z,95463.22
2017-12-10T19:55:04.596Z,95467.98
2017-12-10T19:57:32.270Z,95481.77
2017-12-10T20:00:00.062Z,95471.44
2017-12-10T20:02:27.701Z,95486.04
2017-12-10T20:04:55.494Z,95482.52
2017-12-10T20:07:23.997Z,95487.67
2017-12-10T20:09:51.778Z,95491.25
2017-12-10T20:12:19.529Z,95483.23
2017-12-10T20:14:47.343Z,95489.23
2017-12-10T20:17:15.042Z,95491.72
2017-12-10T20:19:42.814Z,95472.59
2017-12-10T20:22:10.620Z,95488.54
2017-12-10T20:24:38.308Z,95491.61
2017-12-10T20:27:05.870Z,95485.12
2017-12-10T20:29:34.324Z,95488.59
2017-12-10T20:32:01.953Z,95487.72
2017-12-10T20:34:29.697Z,95499.14
2017-12-10T20:36:57.300Z,95506.48
2017-12-10T20:39:24.942Z,95500.72
2017-12-10T20:41:52.550Z,95515.30
2017-12-10T20:44:20.331Z,95512.43
2017-12-10T20:46:47.967Z,95512.73
2017-12-10T20:49:15.635Z,95509.45
2017-12-10T20:51:44.182Z,95498.17
2017-12-10T20:54:11.881Z,95497.98
2017-12-10T20:56:39.444Z,95467.98
2017-12-10T20:59:06.980Z,95479.24
2017-12-10T21:01:34.546Z,95476.88
2017-12-10T21:04:02.415Z,95479.89
2017-12-10T21:06:29.970Z,95468.52
2017-12-10T21:08:57.574Z,95486.07
2017-12-10T21:11:25.163Z,95467.31
2017-12-10T21:13:52.726Z,95476.28
2017-12-10T21:16:20.336Z,95482.89
2017-12-10T21:18:49.634Z,95460.02
2017-12-10T21:21:17.398Z,95473.55
2017-12-10T21:23:44.984Z,95496.58
2017-12-10T21:26:12.799Z,95501.03
2017-12-10T21:28:40.596Z,95506.86
2017-12-10T21:31:08.756Z,95505.67
2017-12-10T21:33:36.327Z,95518.86
2017-12-10T21:36:03.904Z,95519.41
2017-12-10T21:38:31.568Z,95513.18
2017-12-10T21:40:59.123Z,95518.42
2017-12-10T21:43:26.686Z,95519.81
2017-12-10T21:45:54.307Z,95523.08
2017-12-10T21:48:21.873Z,95527.80
2017-12-10T21:50:49.455Z,95523.88
2017-12-10T21:53:17.070Z,95512.63
2017-12-10T21:55:45.494Z,95509.16
2017-12-10T21:58:13.122Z,95526.28
2017-12-10T22:00:40.765Z,95516.22
2017-12-10T22:03:08.314Z,95538.74
2017-12-10T22:05:36.456Z,95529.83
2017-12-10T22:08:04.094Z,95527.19
2017-12-10T22:10:31.876Z,95514.21
2017-12-10T22:12:59.465Z,95522.25
2017-12-10T22:15:27.099Z,95517.50
2017-12-10T22:17:54.900Z,95532.98
2017-12-10T22:20:22.606Z,95540.50
2017-12-10T22:22:50.178Z,95541.98
2017-12-10T22:25:17.713Z,95540.98
2017-12-10T22:27:45.251Z,95540.20
2017-12-10T22:30:12.887Z,95545.19
2017-12-10T22:32:40.480Z,95540.30
2017-12-10T22:35:08.381Z,95548.35
2017-12-10T22:37:36.721Z,95551.38
2017-12-10T22:40:04.283Z,95543.45
2017-12-10T22:42:32.168Z,95530.33
2017-12-10T22:44:59.808Z,95530.46
2017-12-10T22:47:27.334Z,95548.77
2017-12-10T22:49:54.858Z,95556.25
2017-12-10T22:52:22.481Z,95559.34
2017-12-10T22:54:50.274Z,95544.41
2017-12-10T22:57:17.816Z,95557.88
2017-12-10T22:59:45.378Z,95552.74
2017-12-10T23:02:13.068Z,95553.48
2017-12-10T23:04:40.588Z,95546.14
2017-12-10T23:07:08.462Z,95558.20
2017-12-10T23:09:36.020Z,95546.81
2017-12-10T23:12:03.827Z,95545.30
2017-12-10T23:14:42.210Z,95545.56
2017-12-10T23:17:09.745Z,95539.00
2017-12-10T23:19:37.281Z,95532.45
2017-12-10T23:22:04.845Z,95552.20
2017-12-10T23:24:32.447Z,95555.30
2017-12-10T23:26:59.975Z,95558.69
2017-12-10T23:29:27.555Z,95535.70
2017-12-10T23:31:55.210Z,95552.16
2017-12-10T23:34:22.763Z,95556.09
2017-12-10T23:36:50.566Z,95561.80
2017-12-10T23:39:18.125Z,95557.96
2017-12-10T23:41:45.674Z,95559.02
2017-12-10T23:44:13.228Z,95548.98
2017-12-10T23:46:40.877Z,95557.72
2017-12-10T23:49:08.425Z,95547.75
2017-12-10T23:51:35.944Z,95557.77
2017-12-10T23:54:03.759Z,95572.29
2017-12-10T23:56:31.290Z,95571.00
2017-12-10T23:58:58.837Z,95571.88
